05/26 17:00 更新

3,000ftに雲が少し
25,000ftに雲が多い

地上風: 190°15kt

上空風(熊谷 17:10更新)
13,000ft: 未計測
10,000ft: 未計測
 7,000ft: 230° 8kt
 3,000ft: 200° 13kt

地上: 24℃
上空: 0.5℃

日没: 18:48

実況天気図


予想天気図


RJTJ 260800Z 19015KT 9999 FEW030 BKN250 24/14 Q1013 RMK 1CU030 A2994 MAX WIND 22KT=

GPV気象予報
気象庁
日本気象協会

太郎衛門橋テレメータ水位(11mでDZ冠水)

skydive.jp